< < Back
Terminal Aerodrome Forecast


Current Version              Previous Versions:   1  2  3  4  5  6  7  8  9  

Terminal Aerodrome Forecast

063
FTUS44 KBMX 062300
TAFTCL
TAF
KTCL 062329Z 0700/0724 36004KT P6SM SKC=

Latest METAR

694
SAUS70 KWBC 070400 RRI
MTRTCL
METAR KTCL 070353Z AUTO 01005KT 10SM CLR 01/M07 A3050 RMK AO2 SLP327
T00061067


USA.gov is the U.S. government's official web portal to all federal, state and local government web resources and services.